sensor_id;sensor_type;location;lat;lon;timestamp;P1;durP1;ratioP1;P2;durP2;ratioP2
1591;SDS011;789;51.612;7.510;2023-02-28T00:00:36;7.80;;;3.20;;
1591;SDS011;789;51.612;7.510;2023-02-28T00:03:04;5.00;;;2.97;;
1591;SDS011;789;51.612;7.510;2023-02-28T00:05:31;3.30;;;2.80;;
1591;SDS011;789;51.612;7.510;2023-02-28T00:07:59;4.67;;;2.90;;
1591;SDS011;789;51.612;7.510;2023-02-28T00:10:26;5.27;;;3.10;;
1591;SDS011;789;51.612;7.510;2023-02-28T00:12:55;3.43;;;2.53;;
1591;SDS011;789;51.612;7.510;2023-02-28T00:15:25;5.33;;;3.07;;
1591;SDS011;789;51.612;7.510;2023-02-28T00:17:51;2.80;;;2.40;;
1591;SDS011;789;51.612;7.510;2023-02-28T00:20:19;5.17;;;2.87;;
1591;SDS011;789;51.612;7.510;2023-02-28T00:22:47;4.60;;;2.50;;
1591;SDS011;789;51.612;7.510;2023-02-28T00:25:18;7.57;;;2.80;;
1591;SDS011;789;51.612;7.510;2023-02-28T00:27:46;9.27;;;3.13;;
1591;SDS011;789;51.612;7.510;2023-02-28T00:30:14;2.53;;;2.33;;
1591;SDS011;789;51.612;7.510;2023-02-28T00:32:42;3.27;;;2.40;;
1591;SDS011;789;51.612;7.510;2023-02-28T00:35:08;5.70;;;2.70;;
1591;SDS011;789;51.612;7.510;2023-02-28T00:37:36;4.30;;;2.50;;
1591;SDS011;789;51.612;7.510;2023-02-28T00:40:03;4.33;;;2.37;;
1591;SDS011;789;51.612;7.510;2023-02-28T00:42:32;3.90;;;3.00;;
1591;SDS011;789;51.612;7.510;2023-02-28T00:44:59;4.57;;;3.00;;
1591;SDS011;789;51.612;7.510;2023-02-28T00:47:26;6.13;;;3.17;;
1591;SDS011;789;51.612;7.510;2023-02-28T00:49:53;4.30;;;2.90;;
1591;SDS011;789;51.612;7.510;2023-02-28T00:52:19;4.80;;;3.60;;
1591;SDS011;789;51.612;7.510;2023-02-28T00:54:46;3.10;;;2.63;;
1591;SDS011;789;51.612;7.510;2023-02-28T00:57:13;5.70;;;3.00;;
1591;SDS011;789;51.612;7.510;2023-02-28T00:59:40;6.67;;;3.10;;
1591;SDS011;789;51.612;7.510;2023-02-28T01:02:07;4.03;;;2.47;;
1591;SDS011;789;51.612;7.510;2023-02-28T01:04:35;3.80;;;2.70;;
1591;SDS011;789;51.612;7.510;2023-02-28T01:07:01;3.03;;;2.43;;
1591;SDS011;789;51.612;7.510;2023-02-28T01:09:28;3.10;;;2.53;;
1591;SDS011;789;51.612;7.510;2023-02-28T01:11:55;4.60;;;2.83;;
1591;SDS011;789;51.612;7.510;2023-02-28T01:14:22;5.30;;;3.20;;
1591;SDS011;789;51.612;7.510;2023-02-28T01:16:50;4.33;;;3.37;;
1591;SDS011;789;51.612;7.510;2023-02-28T01:19:16;4.20;;;2.70;;
1591;SDS011;789;51.612;7.510;2023-02-28T01:21:43;2.90;;;2.00;;
1591;SDS011;789;51.612;7.510;2023-02-28T01:24:10;2.77;;;2.53;;
1591;SDS011;789;51.612;7.510;2023-02-28T01:26:36;3.20;;;2.07;;
1591;SDS011;789;51.612;7.510;2023-02-28T01:29:03;3.23;;;2.60;;
1591;SDS011;789;51.612;7.510;2023-02-28T01:31:29;4.80;;;2.90;;
1591;SDS011;789;51.612;7.510;2023-02-28T01:33:57;5.20;;;2.73;;
1591;SDS011;789;51.612;7.510;2023-02-28T01:36:25;4.33;;;2.63;;
1591;SDS011;789;51.612;7.510;2023-02-28T01:38:51;3.97;;;2.70;;
1591;SDS011;789;51.612;7.510;2023-02-28T01:41:19;6.13;;;2.67;;
1591;SDS011;789;51.612;7.510;2023-02-28T01:46:33;5.07;;;2.70;;
1591;SDS011;789;51.612;7.510;2023-02-28T01:49:03;4.83;;;3.10;;
1591;SDS011;789;51.612;7.510;2023-02-28T01:51:34;6.37;;;2.60;;
1591;SDS011;789;51.612;7.510;2023-02-28T01:54:05;9.73;;;3.30;;
1591;SDS011;789;51.612;7.510;2023-02-28T01:56:38;5.47;;;2.80;;
1591;SDS011;789;51.612;7.510;2023-02-28T01:59:08;3.63;;;2.77;;
1591;SDS011;789;51.612;7.510;2023-02-28T02:01:36;3.50;;;2.73;;
1591;SDS011;789;51.612;7.510;2023-02-28T02:04:04;3.77;;;2.30;;
1591;SDS011;789;51.612;7.510;2023-02-28T02:06:33;5.20;;;3.00;;
1591;SDS011;789;51.612;7.510;2023-02-28T02:09:03;5.00;;;3.10;;
1591;SDS011;789;51.612;7.510;2023-02-28T02:11:29;3.67;;;2.90;;
1591;SDS011;789;51.612;7.510;2023-02-28T02:14:03;6.80;;;3.07;;
1591;SDS011;789;51.612;7.510;2023-02-28T02:16:47;5.43;;;3.20;;
1591;SDS011;789;51.612;7.510;2023-02-28T02:19:28;4.70;;;3.00;;
1591;SDS011;789;51.612;7.510;2023-02-28T02:22:12;4.70;;;2.70;;
1591;SDS011;789;51.612;7.510;2023-02-28T02:25:08;3.97;;;3.33;;
1591;SDS011;789;51.612;7.510;2023-02-28T02:27:47;4.18;;;3.05;;
1591;SDS011;789;51.612;7.510;2023-02-28T02:30:35;4.00;;;2.90;;
1591;SDS011;789;51.612;7.510;2023-02-28T02:36:49;3.93;;;2.70;;
1591;SDS011;789;51.612;7.510;2023-02-28T02:39:25;4.17;;;2.97;;
1591;SDS011;789;51.612;7.510;2023-02-28T02:41:59;4.90;;;3.03;;
1591;SDS011;789;51.612;7.510;2023-02-28T02:44:30;5.03;;;2.67;;
1591;SDS011;789;51.612;7.510;2023-02-28T02:47:03;4.40;;;2.47;;
1591;SDS011;789;51.612;7.510;2023-02-28T02:49:35;3.43;;;2.67;;
1591;SDS011;789;51.612;7.510;2023-02-28T02:52:06;5.10;;;2.87;;
1591;SDS011;789;51.612;7.510;2023-02-28T02:54:36;3.07;;;2.20;;
1591;SDS011;789;51.612;7.510;2023-02-28T02:57:04;3.90;;;2.50;;
1591;SDS011;789;51.612;7.510;2023-02-28T02:59:33;3.00;;;2.57;;
1591;SDS011;789;51.612;7.510;2023-02-28T03:02:04;3.53;;;2.27;;
1591;SDS011;789;51.612;7.510;2023-02-28T03:04:35;3.47;;;2.27;;
1591;SDS011;789;51.612;7.510;2023-02-28T03:07:08;2.50;;;2.30;;
1591;SDS011;789;51.612;7.510;2023-02-28T03:09:35;7.90;;;2.30;;
1591;SDS011;789;51.612;7.510;2023-02-28T03:12:02;2.87;;;2.10;;
1591;SDS011;789;51.612;7.510;2023-02-28T03:14:35;4.87;;;2.90;;
1591;SDS011;789;51.612;7.510;2023-02-28T03:17:18;3.40;;;2.97;;
1591;SDS011;789;51.612;7.510;2023-02-28T03:19:55;6.13;;;3.03;;
1591;SDS011;789;51.612;7.510;2023-02-28T03:22:40;8.43;;;3.60;;
1591;SDS011;789;51.612;7.510;2023-02-28T03:25:16;5.30;;;3.03;;
1591;SDS011;789;51.612;7.510;2023-02-28T03:27:49;4.60;;;3.00;;
1591;SDS011;789;51.612;7.510;2023-02-28T03:30:24;4.47;;;2.57;;
1591;SDS011;789;51.612;7.510;2023-02-28T03:33:00;4.23;;;3.17;;
1591;SDS011;789;51.612;7.510;2023-02-28T03:35:32;4.27;;;3.20;;
1591;SDS011;789;51.612;7.510;2023-02-28T03:38:13;5.03;;;3.33;;
1591;SDS011;789;51.612;7.510;2023-02-28T03:40:45;4.77;;;2.73;;
1591;SDS011;789;51.612;7.510;2023-02-28T03:43:15;3.03;;;2.63;;
1591;SDS011;789;51.612;7.510;2023-02-28T03:45:46;6.33;;;2.83;;
1591;SDS011;789;51.612;7.510;2023-02-28T03:48:17;4.47;;;3.00;;
1591;SDS011;789;51.612;7.510;2023-02-28T03:50:48;7.50;;;2.90;;
1591;SDS011;789;51.612;7.510;2023-02-28T03:53:20;3.90;;;3.03;;
1591;SDS011;789;51.612;7.510;2023-02-28T03:55:51;4.67;;;3.03;;
1591;SDS011;789;51.612;7.510;2023-02-28T03:58:22;4.50;;;3.37;;
1591;SDS011;789;51.612;7.510;2023-02-28T04:00:55;4.70;;;2.97;;
1591;SDS011;789;51.612;7.510;2023-02-28T04:03:32;4.63;;;3.17;;
1591;SDS011;789;51.612;7.510;2023-02-28T04:05:59;5.87;;;3.37;;
1591;SDS011;789;51.612;7.510;2023-02-28T04:08:27;6.80;;;3.23;;
1591;SDS011;789;51.612;7.510;2023-02-28T04:10:55;6.13;;;3.73;;
1591;SDS011;789;51.612;7.510;2023-02-28T04:13:26;7.53;;;4.20;;
1591;SDS011;789;51.612;7.510;2023-02-28T04:15:53;6.70;;;4.25;;
1591;SDS011;789;51.612;7.510;2023-02-28T04:18:19;4.53;;;3.13;;
1591;SDS011;789;51.612;7.510;2023-02-28T04:20:46;4.67;;;3.07;;
1591;SDS011;789;51.612;7.510;2023-02-28T04:23:13;6.53;;;3.13;;
1591;SDS011;789;51.612;7.510;2023-02-28T04:25:41;8.20;;;2.77;;
1591;SDS011;789;51.612;7.510;2023-02-28T04:28:08;5.40;;;3.07;;
1591;SDS011;789;51.612;7.510;2023-02-28T04:30:36;4.30;;;2.80;;
1591;SDS011;789;51.612;7.510;2023-02-28T04:33:04;3.00;;;2.70;;
1591;SDS011;789;51.612;7.510;2023-02-28T04:35:30;7.03;;;2.97;;
1591;SDS011;789;51.612;7.510;2023-02-28T04:37:57;3.90;;;2.67;;
1591;SDS011;789;51.612;7.510;2023-02-28T04:40:24;3.13;;;2.43;;
1591;SDS011;789;51.612;7.510;2023-02-28T04:42:52;3.75;;;2.90;;
1591;SDS011;789;51.612;7.510;2023-02-28T04:45:19;3.20;;;2.57;;
1591;SDS011;789;51.612;7.510;2023-02-28T04:47:45;4.85;;;3.00;;
1591;SDS011;789;51.612;7.510;2023-02-28T04:50:12;4.63;;;2.90;;
1591;SDS011;789;51.612;7.510;2023-02-28T04:52:48;4.25;;;3.20;;
1591;SDS011;789;51.612;7.510;2023-02-28T04:55:19;8.37;;;3.17;;
1591;SDS011;789;51.612;7.510;2023-02-28T04:57:49;3.93;;;2.57;;
1591;SDS011;789;51.612;7.510;2023-02-28T05:00:18;5.10;;;2.43;;
1591;SDS011;789;51.612;7.510;2023-02-28T05:02:45;4.67;;;3.40;;
1591;SDS011;789;51.612;7.510;2023-02-28T05:05:12;4.67;;;2.80;;
1591;SDS011;789;51.612;7.510;2023-02-28T05:07:43;4.70;;;3.20;;
1591;SDS011;789;51.612;7.510;2023-02-28T05:10:10;3.65;;;2.85;;
1591;SDS011;789;51.612;7.510;2023-02-28T05:12:37;5.07;;;2.70;;
1591;SDS011;789;51.612;7.510;2023-02-28T05:15:07;6.72;;;3.03;;
1591;SDS011;789;51.612;7.510;2023-02-28T05:17:38;9.05;;;3.53;;
1591;SDS011;789;51.612;7.510;2023-02-28T05:20:05;4.00;;;2.90;;
1591;SDS011;789;51.612;7.510;2023-02-28T05:22:33;5.23;;;3.37;;
1591;SDS011;789;51.612;7.510;2023-02-28T05:25:00;7.93;;;2.90;;
1591;SDS011;789;51.612;7.510;2023-02-28T05:27:27;5.82;;;3.40;;
1591;SDS011;789;51.612;7.510;2023-02-28T05:29:53;4.35;;;3.00;;
1591;SDS011;789;51.612;7.510;2023-02-28T05:32:22;3.10;;;2.77;;
1591;SDS011;789;51.612;7.510;2023-02-28T05:34:48;7.75;;;3.50;;
1591;SDS011;789;51.612;7.510;2023-02-28T05:37:15;3.97;;;3.28;;
1591;SDS011;789;51.612;7.510;2023-02-28T05:39:42;7.05;;;3.65;;
1591;SDS011;789;51.612;7.510;2023-02-28T05:42:09;5.22;;;4.40;;
1591;SDS011;789;51.612;7.510;2023-02-28T05:44:36;4.15;;;3.72;;
1591;SDS011;789;51.612;7.510;2023-02-28T05:47:02;17.33;;;4.85;;
1591;SDS011;789;51.612;7.510;2023-02-28T05:49:30;12.07;;;4.47;;
1591;SDS011;789;51.612;7.510;2023-02-28T05:51:57;5.37;;;4.80;;
1591;SDS011;789;51.612;7.510;2023-02-28T05:54:24;7.90;;;5.53;;
1591;SDS011;789;51.612;7.510;2023-02-28T05:56:50;14.10;;;4.65;;
1591;SDS011;789;51.612;7.510;2023-02-28T05:59:17;9.68;;;5.40;;
1591;SDS011;789;51.612;7.510;2023-02-28T06:01:44;18.80;;;6.00;;
1591;SDS011;789;51.612;7.510;2023-02-28T06:04:14;19.25;;;7.63;;
1591;SDS011;789;51.612;7.510;2023-02-28T06:06:45;10.68;;;5.60;;
1591;SDS011;789;51.612;7.510;2023-02-28T06:09:12;6.35;;;4.15;;
1591;SDS011;789;51.612;7.510;2023-02-28T06:11:39;7.38;;;4.25;;
1591;SDS011;789;51.612;7.510;2023-02-28T06:14:07;8.60;;;4.77;;
1591;SDS011;789;51.612;7.510;2023-02-28T06:16:39;13.45;;;5.30;;
1591;SDS011;789;51.612;7.510;2023-02-28T06:19:06;14.95;;;5.53;;
1591;SDS011;789;51.612;7.510;2023-02-28T06:21:33;10.80;;;4.70;;
1591;SDS011;789;51.612;7.510;2023-02-28T06:24:01;7.13;;;5.35;;
1591;SDS011;789;51.612;7.510;2023-02-28T06:26:28;9.88;;;5.10;;
1591;SDS011;789;51.612;7.510;2023-02-28T06:28:55;13.70;;;4.60;;
1591;SDS011;789;51.612;7.510;2023-02-28T06:31:22;9.10;;;5.00;;
1591;SDS011;789;51.612;7.510;2023-02-28T06:33:50;14.95;;;6.15;;
1591;SDS011;789;51.612;7.510;2023-02-28T06:36:17;15.00;;;6.13;;
1591;SDS011;789;51.612;7.510;2023-02-28T06:38:44;8.90;;;5.80;;
1591;SDS011;789;51.612;7.510;2023-02-28T06:41:17;8.85;;;4.85;;
1591;SDS011;789;51.612;7.510;2023-02-28T06:43:44;11.63;;;5.27;;
1591;SDS011;789;51.612;7.510;2023-02-28T06:46:11;19.20;;;5.53;;
1591;SDS011;789;51.612;7.510;2023-02-28T06:48:39;8.90;;;5.40;;
1591;SDS011;789;51.612;7.510;2023-02-28T06:51:09;10.80;;;5.47;;
1591;SDS011;789;51.612;7.510;2023-02-28T06:53:36;10.43;;;5.43;;
1591;SDS011;789;51.612;7.510;2023-02-28T06:56:04;20.33;;;4.87;;
1591;SDS011;789;51.612;7.510;2023-02-28T06:58:33;11.68;;;5.35;;
1591;SDS011;789;51.612;7.510;2023-02-28T07:01:00;10.35;;;5.05;;
1591;SDS011;789;51.612;7.510;2023-02-28T07:03:27;20.60;;;5.70;;
1591;SDS011;789;51.612;7.510;2023-02-28T07:05:54;15.33;;;6.27;;
1591;SDS011;789;51.612;7.510;2023-02-28T07:08:21;11.30;;;5.40;;
1591;SDS011;789;51.612;7.510;2023-02-28T07:10:50;11.20;;;5.60;;
1591;SDS011;789;51.612;7.510;2023-02-28T07:13:18;15.53;;;6.30;;
1591;SDS011;789;51.612;7.510;2023-02-28T07:15:52;21.80;;;6.75;;
1591;SDS011;789;51.612;7.510;2023-02-28T07:18:19;16.33;;;6.13;;
1591;SDS011;789;51.612;7.510;2023-02-28T07:20:46;9.50;;;5.60;;
1591;SDS011;789;51.612;7.510;2023-02-28T07:23:12;11.00;;;5.50;;
1591;SDS011;789;51.612;7.510;2023-02-28T07:25:39;8.05;;;5.55;;
1591;SDS011;789;51.612;7.510;2023-02-28T07:28:06;11.20;;;5.43;;
1591;SDS011;789;51.612;7.510;2023-02-28T07:30:33;8.68;;;5.47;;
1591;SDS011;789;51.612;7.510;2023-02-28T07:33:01;6.23;;;5.20;;
1591;SDS011;789;51.612;7.510;2023-02-28T07:35:29;5.73;;;4.77;;
1591;SDS011;789;51.612;7.510;2023-02-28T07:37:57;6.73;;;4.27;;
1591;SDS011;789;51.612;7.510;2023-02-28T07:40:24;6.53;;;4.23;;
1591;SDS011;789;51.612;7.510;2023-02-28T07:42:51;6.73;;;4.20;;
1591;SDS011;789;51.612;7.510;2023-02-28T07:45:18;8.63;;;4.50;;
1591;SDS011;789;51.612;7.510;2023-02-28T07:47:45;7.83;;;4.50;;
1591;SDS011;789;51.612;7.510;2023-02-28T07:50:14;10.33;;;6.30;;
1591;SDS011;789;51.612;7.510;2023-02-28T07:52:41;9.13;;;4.50;;
1591;SDS011;789;51.612;7.510;2023-02-28T07:55:08;7.40;;;6.60;;
1591;SDS011;789;51.612;7.510;2023-02-28T07:57:35;6.03;;;4.30;;
1591;SDS011;789;51.612;7.510;2023-02-28T08:00:03;8.43;;;4.23;;
1591;SDS011;789;51.612;7.510;2023-02-28T08:02:31;9.83;;;4.40;;
1591;SDS011;789;51.612;7.510;2023-02-28T08:04:59;11.80;;;4.50;;
1591;SDS011;789;51.612;7.510;2023-02-28T08:07:27;5.50;;;4.03;;
1591;SDS011;789;51.612;7.510;2023-02-28T08:09:54;9.77;;;4.60;;
1591;SDS011;789;51.612;7.510;2023-02-28T08:12:21;7.77;;;3.97;;
1591;SDS011;789;51.612;7.510;2023-02-28T08:14:47;6.50;;;4.13;;
1591;SDS011;789;51.612;7.510;2023-02-28T08:17:14;8.30;;;4.67;;
1591;SDS011;789;51.612;7.510;2023-02-28T08:19:41;11.70;;;5.53;;
1591;SDS011;789;51.612;7.510;2023-02-28T08:22:07;10.40;;;4.50;;
1591;SDS011;789;51.612;7.510;2023-02-28T08:24:35;6.77;;;4.43;;
1591;SDS011;789;51.612;7.510;2023-02-28T08:27:02;8.00;;;5.10;;
1591;SDS011;789;51.612;7.510;2023-02-28T08:29:29;10.63;;;5.20;;
1591;SDS011;789;51.612;7.510;2023-02-28T08:31:56;8.33;;;4.77;;
1591;SDS011;789;51.612;7.510;2023-02-28T08:34:23;6.03;;;5.20;;
1591;SDS011;789;51.612;7.510;2023-02-28T08:36:50;10.70;;;4.60;;
1591;SDS011;789;51.612;7.510;2023-02-28T08:39:18;8.03;;;4.87;;
1591;SDS011;789;51.612;7.510;2023-02-28T08:41:46;8.10;;;5.50;;
1591;SDS011;789;51.612;7.510;2023-02-28T08:44:13;5.67;;;4.93;;
1591;SDS011;789;51.612;7.510;2023-02-28T08:46:39;7.07;;;5.23;;
1591;SDS011;789;51.612;7.510;2023-02-28T08:49:06;6.60;;;4.77;;
1591;SDS011;789;51.612;7.510;2023-02-28T08:51:34;5.53;;;4.70;;
1591;SDS011;789;51.612;7.510;2023-02-28T08:54:01;7.77;;;4.30;;
1591;SDS011;789;51.612;7.510;2023-02-28T08:56:28;7.47;;;4.90;;
1591;SDS011;789;51.612;7.510;2023-02-28T08:58:56;6.60;;;4.30;;
1591;SDS011;789;51.612;7.510;2023-02-28T09:01:24;5.73;;;4.30;;
1591;SDS011;789;51.612;7.510;2023-02-28T09:03:53;6.67;;;4.07;;
1591;SDS011;789;51.612;7.510;2023-02-28T09:06:22;6.93;;;5.40;;
1591;SDS011;789;51.612;7.510;2023-02-28T09:08:50;6.80;;;4.70;;
1591;SDS011;789;51.612;7.510;2023-02-28T09:11:17;8.63;;;4.37;;
1591;SDS011;789;51.612;7.510;2023-02-28T09:13:45;10.30;;;4.20;;
1591;SDS011;789;51.612;7.510;2023-02-28T09:16:14;5.67;;;5.17;;
1591;SDS011;789;51.612;7.510;2023-02-28T09:18:42;12.40;;;4.67;;
1591;SDS011;789;51.612;7.510;2023-02-28T09:21:10;6.10;;;4.80;;
1591;SDS011;789;51.612;7.510;2023-02-28T09:23:39;5.10;;;4.60;;
1591;SDS011;789;51.612;7.510;2023-02-28T09:26:06;7.20;;;4.50;;
1591;SDS011;789;51.612;7.510;2023-02-28T09:28:33;6.60;;;4.70;;
1591;SDS011;789;51.612;7.510;2023-02-28T09:31:00;6.63;;;3.97;;
1591;SDS011;789;51.612;7.510;2023-02-28T09:33:31;5.07;;;3.73;;
1591;SDS011;789;51.612;7.510;2023-02-28T09:35:59;6.77;;;3.70;;
1591;SDS011;789;51.612;7.510;2023-02-28T09:38:27;6.80;;;4.00;;
1591;SDS011;789;51.612;7.510;2023-02-28T09:40:55;5.87;;;4.37;;
1591;SDS011;789;51.612;7.510;2023-02-28T09:43:25;6.30;;;4.43;;
1591;SDS011;789;51.612;7.510;2023-02-28T09:45:55;4.13;;;3.00;;
1591;SDS011;789;51.612;7.510;2023-02-28T09:48:28;6.23;;;3.43;;
1591;SDS011;789;51.612;7.510;2023-02-28T09:51:00;9.03;;;4.00;;
1591;SDS011;789;51.612;7.510;2023-02-28T09:53:30;3.97;;;3.60;;
1591;SDS011;789;51.612;7.510;2023-02-28T09:56:01;4.23;;;3.03;;
1591;SDS011;789;51.612;7.510;2023-02-28T09:58:31;12.57;;;4.07;;
1591;SDS011;789;51.612;7.510;2023-02-28T10:01:05;5.00;;;2.63;;
1591;SDS011;789;51.612;7.510;2023-02-28T10:03:37;2.70;;;2.40;;
1591;SDS011;789;51.612;7.510;2023-02-28T10:06:07;3.13;;;2.40;;
1591;SDS011;789;51.612;7.510;2023-02-28T10:08:40;3.70;;;2.73;;
1591;SDS011;789;51.612;7.510;2023-02-28T10:11:14;5.77;;;2.87;;
1591;SDS011;789;51.612;7.510;2023-02-28T10:13:46;5.10;;;2.70;;
1591;SDS011;789;51.612;7.510;2023-02-28T10:16:22;7.30;;;2.37;;
1591;SDS011;789;51.612;7.510;2023-02-28T10:18:56;5.30;;;2.40;;
1591;SDS011;789;51.612;7.510;2023-02-28T10:21:28;2.93;;;2.37;;
1591;SDS011;789;51.612;7.510;2023-02-28T10:24:01;3.10;;;2.30;;
1591;SDS011;789;51.612;7.510;2023-02-28T10:26:31;4.03;;;2.53;;
1591;SDS011;789;51.612;7.510;2023-02-28T10:28:59;6.70;;;2.50;;
1591;SDS011;789;51.612;7.510;2023-02-28T10:31:27;4.17;;;2.60;;
1591;SDS011;789;51.612;7.510;2023-02-28T10:33:55;3.63;;;2.47;;
1591;SDS011;789;51.612;7.510;2023-02-28T10:36:22;2.93;;;2.27;;
1591;SDS011;789;51.612;7.510;2023-02-28T10:38:49;5.43;;;1.90;;
1591;SDS011;789;51.612;7.510;2023-02-28T10:41:18;3.20;;;2.43;;
1591;SDS011;789;51.612;7.510;2023-02-28T10:43:57;3.13;;;2.80;;
1591;SDS011;789;51.612;7.510;2023-02-28T10:46:40;2.37;;;2.17;;
1591;SDS011;789;51.612;7.510;2023-02-28T10:49:13;3.73;;;2.87;;
1591;SDS011;789;51.612;7.510;2023-02-28T10:51:43;6.83;;;2.63;;
1591;SDS011;789;51.612;7.510;2023-02-28T10:54:14;3.67;;;2.37;;
1591;SDS011;789;51.612;7.510;2023-02-28T10:56:42;6.20;;;4.13;;
1591;SDS011;789;51.612;7.510;2023-02-28T10:59:22;3.57;;;3.10;;
1591;SDS011;789;51.612;7.510;2023-02-28T11:01:55;8.00;;;2.57;;
1591;SDS011;789;51.612;7.510;2023-02-28T11:04:33;2.90;;;2.10;;
1591;SDS011;789;51.612;7.510;2023-02-28T11:07:05;3.00;;;2.30;;
1591;SDS011;789;51.612;7.510;2023-02-28T11:09:44;2.53;;;2.13;;
1591;SDS011;789;51.612;7.510;2023-02-28T11:12:19;5.93;;;2.40;;
1591;SDS011;789;51.612;7.510;2023-02-28T11:14:48;2.77;;;2.30;;
1591;SDS011;789;51.612;7.510;2023-02-28T11:17:19;5.60;;;2.87;;
1591;SDS011;789;51.612;7.510;2023-02-28T11:19:50;3.83;;;3.40;;
1591;SDS011;789;51.612;7.510;2023-02-28T11:22:19;4.53;;;3.07;;
1591;SDS011;789;51.612;7.510;2023-02-28T11:24:50;7.73;;;7.00;;
1591;SDS011;789;51.612;7.510;2023-02-28T11:27:24;2.73;;;2.10;;
1591;SDS011;789;51.612;7.510;2023-02-28T11:30:16;4.90;;;2.93;;
1591;SDS011;789;51.612;7.510;2023-02-28T11:32:53;3.57;;;2.77;;
1591;SDS011;789;51.612;7.510;2023-02-28T11:35:23;4.23;;;2.87;;
1591;SDS011;789;51.612;7.510;2023-02-28T11:37:52;6.53;;;2.93;;
1591;SDS011;789;51.612;7.510;2023-02-28T11:40:21;3.70;;;3.20;;
1591;SDS011;789;51.612;7.510;2023-02-28T11:42:56;4.73;;;3.20;;
1591;SDS011;789;51.612;7.510;2023-02-28T11:45:36;3.10;;;2.80;;
1591;SDS011;789;51.612;7.510;2023-02-28T11:48:21;3.30;;;3.00;;
1591;SDS011;789;51.612;7.510;2023-02-28T11:50:57;3.83;;;3.37;;
1591;SDS011;789;51.612;7.510;2023-02-28T11:53:36;4.33;;;3.43;;
1591;SDS011;789;51.612;7.510;2023-02-28T11:56:22;4.10;;;3.70;;
1591;SDS011;789;51.612;7.510;2023-02-28T11:58:57;4.03;;;3.70;;
1591;SDS011;789;51.612;7.510;2023-02-28T12:01:38;4.57;;;4.07;;
1591;SDS011;789;51.612;7.510;2023-02-28T12:04:25;6.03;;;3.97;;
1591;SDS011;789;51.612;7.510;2023-02-28T12:07:02;6.23;;;4.10;;
1591;SDS011;789;51.612;7.510;2023-02-28T12:09:44;4.20;;;3.70;;
1591;SDS011;789;51.612;7.510;2023-02-28T12:12:21;6.43;;;3.40;;
1591;SDS011;789;51.612;7.510;2023-02-28T12:14:57;3.67;;;3.40;;
1591;SDS011;789;51.612;7.510;2023-02-28T12:17:43;3.90;;;3.60;;
1591;SDS011;789;51.612;7.510;2023-02-28T12:20:23;4.03;;;3.70;;
1591;SDS011;789;51.612;7.510;2023-02-28T12:23:00;4.30;;;3.70;;
1591;SDS011;789;51.612;7.510;2023-02-28T12:25:38;9.40;;;3.83;;
1591;SDS011;789;51.612;7.510;2023-02-28T12:28:16;3.60;;;3.30;;
1591;SDS011;789;51.612;7.510;2023-02-28T12:30:49;6.70;;;3.40;;
1591;SDS011;789;51.612;7.510;2023-02-28T12:33:20;2.80;;;2.60;;
1591;SDS011;789;51.612;7.510;2023-02-28T12:35:51;4.37;;;2.80;;
1591;SDS011;789;51.612;7.510;2023-02-28T12:38:23;4.03;;;2.80;;
1591;SDS011;789;51.612;7.510;2023-02-28T12:40:54;5.43;;;3.20;;
1591;SDS011;789;51.612;7.510;2023-02-28T12:43:27;3.20;;;2.90;;
1591;SDS011;789;51.612;7.510;2023-02-28T12:45:59;3.10;;;2.57;;
1591;SDS011;789;51.612;7.510;2023-02-28T12:48:31;4.60;;;3.37;;
1591;SDS011;789;51.612;7.510;2023-02-28T12:51:04;4.10;;;3.33;;
1591;SDS011;789;51.612;7.510;2023-02-28T12:53:38;4.47;;;3.13;;
1591;SDS011;789;51.612;7.510;2023-02-28T12:56:16;3.97;;;3.10;;
1591;SDS011;789;51.612;7.510;2023-02-28T12:58:49;4.40;;;3.47;;
1591;SDS011;789;51.612;7.510;2023-02-28T13:01:28;8.10;;;3.60;;
1591;SDS011;789;51.612;7.510;2023-02-28T13:04:14;5.87;;;3.60;;
1591;SDS011;789;51.612;7.510;2023-02-28T13:10:15;3.40;;;3.10;;
1591;SDS011;789;51.612;7.510;2023-02-28T13:12:47;4.20;;;3.80;;
1591;SDS011;789;51.612;7.510;2023-02-28T13:15:16;3.47;;;3.17;;
1591;SDS011;789;51.612;7.510;2023-02-28T13:17:48;3.87;;;3.57;;
1591;SDS011;789;51.612;7.510;2023-02-28T13:20:18;4.30;;;3.90;;
1591;SDS011;789;51.612;7.510;2023-02-28T13:22:47;4.00;;;3.60;;
1591;SDS011;789;51.612;7.510;2023-02-28T13:31:33;4.73;;;4.13;;
1591;SDS011;789;51.612;7.510;2023-02-28T13:34:40;4.53;;;4.13;;
1591;SDS011;789;51.612;7.510;2023-02-28T13:40:22;5.83;;;4.93;;
1591;SDS011;789;51.612;7.510;2023-02-28T13:42:54;6.20;;;4.43;;
1591;SDS011;789;51.612;7.510;2023-02-28T13:45:27;4.50;;;4.10;;
1591;SDS011;789;51.612;7.510;2023-02-28T13:47:56;4.67;;;4.27;;
1591;SDS011;789;51.612;7.510;2023-02-28T13:50:32;4.10;;;3.70;;
1591;SDS011;789;51.612;7.510;2023-02-28T13:56:20;6.30;;;3.90;;
1591;SDS011;789;51.612;7.510;2023-02-28T13:58:57;5.20;;;4.07;;
1591;SDS011;789;51.612;7.510;2023-02-28T14:01:51;4.30;;;3.90;;
1591;SDS011;789;51.612;7.510;2023-02-28T14:04:41;4.80;;;4.20;;
1591;SDS011;789;51.612;7.510;2023-02-28T14:07:21;6.10;;;4.03;;
1591;SDS011;789;51.612;7.510;2023-02-28T14:09:56;5.80;;;4.00;;
1591;SDS011;789;51.612;7.510;2023-02-28T14:15:36;5.47;;;3.60;;
1591;SDS011;789;51.612;7.510;2023-02-28T14:18:14;4.20;;;3.90;;
1591;SDS011;789;51.612;7.510;2023-02-28T14:20:44;5.60;;;4.03;;
1591;SDS011;789;51.612;7.510;2023-02-28T14:23:15;4.10;;;3.70;;
1591;SDS011;789;51.612;7.510;2023-02-28T14:25:53;5.87;;;3.57;;
1591;SDS011;789;51.612;7.510;2023-02-28T14:28:32;3.77;;;3.47;;
1591;SDS011;789;51.612;7.510;2023-02-28T14:31:10;4.20;;;3.67;;
1591;SDS011;789;51.612;7.510;2023-02-28T14:33:47;6.20;;;4.00;;
1591;SDS011;789;51.612;7.510;2023-02-28T14:36:26;4.40;;;4.00;;
1591;SDS011;789;51.612;7.510;2023-02-28T14:38:59;9.43;;;4.00;;
1591;SDS011;789;51.612;7.510;2023-02-28T14:41:31;5.07;;;3.90;;
1591;SDS011;789;51.612;7.510;2023-02-28T14:44:02;4.00;;;3.60;;
1591;SDS011;789;51.612;7.510;2023-02-28T14:46:39;5.00;;;4.23;;
1591;SDS011;789;51.612;7.510;2023-02-28T14:49:17;7.50;;;4.50;;
1591;SDS011;789;51.612;7.510;2023-02-28T14:51:47;4.33;;;3.93;;
1591;SDS011;789;51.612;7.510;2023-02-28T14:54:18;5.03;;;3.90;;
1591;SDS011;789;51.612;7.510;2023-02-28T14:56:49;5.00;;;4.07;;
1591;SDS011;789;51.612;7.510;2023-02-28T14:59:22;6.50;;;4.90;;
1591;SDS011;789;51.612;7.510;2023-02-28T15:01:51;5.27;;;4.20;;
1591;SDS011;789;51.612;7.510;2023-02-28T15:04:20;4.77;;;4.37;;
1591;SDS011;789;51.612;7.510;2023-02-28T15:07:08;5.07;;;4.57;;
1591;SDS011;789;51.612;7.510;2023-02-28T15:09:37;5.00;;;4.20;;
1591;SDS011;789;51.612;7.510;2023-02-28T15:12:04;5.60;;;4.67;;
1591;SDS011;789;51.612;7.510;2023-02-28T15:14:31;4.50;;;4.10;;
1591;SDS011;789;51.612;7.510;2023-02-28T15:17:01;5.20;;;4.70;;
1591;SDS011;789;51.612;7.510;2023-02-28T15:19:31;8.33;;;5.20;;
1591;SDS011;789;51.612;7.510;2023-02-28T15:22:02;4.17;;;3.77;;
1591;SDS011;789;51.612;7.510;2023-02-28T15:24:35;4.50;;;4.10;;
1591;SDS011;789;51.612;7.510;2023-02-28T15:27:06;4.47;;;4.03;;
1591;SDS011;789;51.612;7.510;2023-02-28T15:29:41;4.37;;;3.70;;
1591;SDS011;789;51.612;7.510;2023-02-28T15:32:23;5.23;;;4.30;;
1591;SDS011;789;51.612;7.510;2023-02-28T15:34:53;5.70;;;4.43;;
1591;SDS011;789;51.612;7.510;2023-02-28T15:37:29;4.03;;;3.73;;
1591;SDS011;789;51.612;7.510;2023-02-28T15:40:12;4.20;;;3.80;;
1591;SDS011;789;51.612;7.510;2023-02-28T15:42:41;4.40;;;3.70;;
1591;SDS011;789;51.612;7.510;2023-02-28T15:45:28;7.00;;;4.07;;
1591;SDS011;789;51.612;7.510;2023-02-28T15:48:00;5.60;;;4.50;;
1591;SDS011;789;51.612;7.510;2023-02-28T15:50:27;4.90;;;4.30;;
1591;SDS011;789;51.612;7.510;2023-02-28T15:52:54;6.13;;;4.37;;
1591;SDS011;789;51.612;7.510;2023-02-28T15:55:23;6.03;;;3.73;;
1591;SDS011;789;51.612;7.510;2023-02-28T15:57:54;5.30;;;3.63;;
1591;SDS011;789;51.612;7.510;2023-02-28T16:00:24;4.60;;;3.87;;
1591;SDS011;789;51.612;7.510;2023-02-28T16:02:52;5.00;;;3.33;;
1591;SDS011;789;51.612;7.510;2023-02-28T16:05:21;5.17;;;3.70;;
1591;SDS011;789;51.612;7.510;2023-02-28T16:07:55;5.17;;;3.13;;
1591;SDS011;789;51.612;7.510;2023-02-28T16:10:26;4.50;;;3.87;;
1591;SDS011;789;51.612;7.510;2023-02-28T16:12:54;15.63;;;3.97;;
1591;SDS011;789;51.612;7.510;2023-02-28T16:15:23;3.63;;;3.10;;
1591;SDS011;789;51.612;7.510;2023-02-28T16:17:52;5.20;;;3.53;;